sensor_id;sensor_type;location;lat;lon;timestamp;temperature;humidity
59973;DHT22;55298;-36.624;-64.282;2023-04-24T00:01:05;18.20;71.20
59973;DHT22;55298;-36.624;-64.282;2023-04-24T00:03:34;18.30;71.30
59973;DHT22;55298;-36.624;-64.282;2023-04-24T00:06:02;18.20;71.20
59973;DHT22;55298;-36.624;-64.282;2023-04-24T00:08:30;18.10;71.90
59973;DHT22;55298;-36.624;-64.282;2023-04-24T00:10:58;18.00;72.80
59973;DHT22;55298;-36.624;-64.282;2023-04-24T00:13:26;18.00;72.80
59973;DHT22;55298;-36.624;-64.282;2023-04-24T00:15:56;18.00;74.20
59973;DHT22;55298;-36.624;-64.282;2023-04-24T00:18:24;17.90;74.60
59973;DHT22;55298;-36.624;-64.282;2023-04-24T00:20:52;17.80;74.60
59973;DHT22;55298;-36.624;-64.282;2023-04-24T00:23:20;17.80;74.80
59973;DHT22;55298;-36.624;-64.282;2023-04-24T00:25:48;17.70;75.50
59973;DHT22;55298;-36.624;-64.282;2023-04-24T00:28:16;17.60;76.20
59973;DHT22;55298;-36.624;-64.282;2023-04-24T00:30:43;17.60;77.10
59973;DHT22;55298;-36.624;-64.282;2023-04-24T00:33:12;17.60;76.40
59973;DHT22;55298;-36.624;-64.282;2023-04-24T00:35:40;17.50;76.40
59973;DHT22;55298;-36.624;-64.282;2023-04-24T00:38:07;17.50;75.80
59973;DHT22;55298;-36.624;-64.282;2023-04-24T00:40:36;17.50;75.90
59973;DHT22;55298;-36.624;-64.282;2023-04-24T00:43:05;17.50;75.60
59973;DHT22;55298;-36.624;-64.282;2023-04-24T00:45:33;17.60;76.10
59973;DHT22;55298;-36.624;-64.282;2023-04-24T00:48:01;17.60;76.20
59973;DHT22;55298;-36.624;-64.282;2023-04-24T00:50:30;17.60;76.30
59973;DHT22;55298;-36.624;-64.282;2023-04-24T00:52:57;17.60;76.20
59973;DHT22;55298;-36.624;-64.282;2023-04-24T00:55:27;17.60;76.10
59973;DHT22;55298;-36.624;-64.282;2023-04-24T00:57:55;17.60;76.20
59973;DHT22;55298;-36.624;-64.282;2023-04-24T01:00:23;17.60;76.30
59973;DHT22;55298;-36.624;-64.282;2023-04-24T01:02:53;17.60;76.40
59973;DHT22;55298;-36.624;-64.282;2023-04-24T01:05:22;17.50;76.60
59973;DHT22;55298;-36.624;-64.282;2023-04-24T01:07:51;17.50;76.90
59973;DHT22;55298;-36.624;-64.282;2023-04-24T01:10:19;17.40;77.20
59973;DHT22;55298;-36.624;-64.282;2023-04-24T01:12:47;17.40;77.50
59973;DHT22;55298;-36.624;-64.282;2023-04-24T01:15:15;17.30;77.60
59973;DHT22;55298;-36.624;-64.282;2023-04-24T01:17:46;17.20;77.80
59973;DHT22;55298;-36.624;-64.282;2023-04-24T01:20:17;17.20;78.30
59973;DHT22;55298;-36.624;-64.282;2023-04-24T01:22:47;16.90;78.50
59973;DHT22;55298;-36.624;-64.282;2023-04-24T01:25:15;17.10;78.80
59973;DHT22;55298;-36.624;-64.282;2023-04-24T01:27:51;17.00;78.80
59973;DHT22;55298;-36.624;-64.282;2023-04-24T01:30:19;17.00;79.20
59973;DHT22;55298;-36.624;-64.282;2023-04-24T01:32:47;17.00;80.00
59973;DHT22;55298;-36.624;-64.282;2023-04-24T01:35:15;16.80;80.10
59973;DHT22;55298;-36.624;-64.282;2023-04-24T01:37:52;16.60;80.80
59973;DHT22;55298;-36.624;-64.282;2023-04-24T01:40:29;16.60;81.40
59973;DHT22;55298;-36.624;-64.282;2023-04-24T01:43:02;16.50;82.00
59973;DHT22;55298;-36.624;-64.282;2023-04-24T01:45:35;16.40;82.50
59973;DHT22;55298;-36.624;-64.282;2023-04-24T01:48:04;16.40;83.00
59973;DHT22;55298;-36.624;-64.282;2023-04-24T01:50:35;16.30;83.40
59973;DHT22;55298;-36.624;-64.282;2023-04-24T01:53:04;16.30;83.50
59973;DHT22;55298;-36.624;-64.282;2023-04-24T01:55:35;16.20;83.80
59973;DHT22;55298;-36.624;-64.282;2023-04-24T01:58:07;16.20;84.00
59973;DHT22;55298;-36.624;-64.282;2023-04-24T02:00:36;16.00;84.50
59973;DHT22;55298;-36.624;-64.282;2023-04-24T02:03:05;16.10;85.10
59973;DHT22;55298;-36.624;-64.282;2023-04-24T02:05:34;16.00;85.80
59973;DHT22;55298;-36.624;-64.282;2023-04-24T02:08:03;16.00;85.90
59973;DHT22;55298;-36.624;-64.282;2023-04-24T02:10:31;15.90;86.60
59973;DHT22;55298;-36.624;-64.282;2023-04-24T02:13:03;17.10;87.80
59973;DHT22;55298;-36.624;-64.282;2023-04-24T02:15:31;15.90;87.50
59973;DHT22;55298;-36.624;-64.282;2023-04-24T02:18:00;15.90;88.10
59973;DHT22;55298;-36.624;-64.282;2023-04-24T02:20:30;15.80;89.10
59973;DHT22;55298;-36.624;-64.282;2023-04-24T02:23:00;15.80;89.30
59973;DHT22;55298;-36.624;-64.282;2023-04-24T02:25:28;15.80;89.60
59973;DHT22;55298;-36.624;-64.282;2023-04-24T02:27:56;15.80;90.10
59973;DHT22;55298;-36.624;-64.282;2023-04-24T02:30:25;15.80;90.70
59973;DHT22;55298;-36.624;-64.282;2023-04-24T02:32:53;15.70;90.60
59973;DHT22;55298;-36.624;-64.282;2023-04-24T02:35:20;15.70;90.60
59973;DHT22;55298;-36.624;-64.282;2023-04-24T02:37:48;15.60;90.60
59973;DHT22;55298;-36.624;-64.282;2023-04-24T02:40:17;15.60;90.80
59973;DHT22;55298;-36.624;-64.282;2023-04-24T02:42:46;15.50;91.40
59973;DHT22;55298;-36.624;-64.282;2023-04-24T02:47:40;15.50;91.60
59973;DHT22;55298;-36.624;-64.282;2023-04-24T02:50:09;15.40;91.30
59973;DHT22;55298;-36.624;-64.282;2023-04-24T02:52:37;15.40;91.60
59973;DHT22;55298;-36.624;-64.282;2023-04-24T02:55:06;15.30;91.90
59973;DHT22;55298;-36.624;-64.282;2023-04-24T02:57:35;15.20;92.10
59973;DHT22;55298;-36.624;-64.282;2023-04-24T03:00:04;15.30;92.90
59973;DHT22;55298;-36.624;-64.282;2023-04-24T03:02:33;15.10;92.90
59973;DHT22;55298;-36.624;-64.282;2023-04-24T03:05:02;15.10;93.10
59973;DHT22;55298;-36.624;-64.282;2023-04-24T03:07:31;15.50;93.80
59973;DHT22;55298;-36.624;-64.282;2023-04-24T03:09:58;15.10;93.70
59973;DHT22;55298;-36.624;-64.282;2023-04-24T03:12:26;14.90;94.00
59973;DHT22;55298;-36.624;-64.282;2023-04-24T03:14:54;17.30;94.90
59973;DHT22;55298;-36.624;-64.282;2023-04-24T03:17:22;15.00;94.50
59973;DHT22;55298;-36.624;-64.282;2023-04-24T03:19:50;14.90;95.00
59973;DHT22;55298;-36.624;-64.282;2023-04-24T03:22:19;14.90;95.20
59973;DHT22;55298;-36.624;-64.282;2023-04-24T03:24:50;14.90;95.40
59973;DHT22;55298;-36.624;-64.282;2023-04-24T03:27:19;14.90;95.80
59973;DHT22;55298;-36.624;-64.282;2023-04-24T03:29:48;14.80;95.90
59973;DHT22;55298;-36.624;-64.282;2023-04-24T03:32:21;14.80;96.20
59973;DHT22;55298;-36.624;-64.282;2023-04-24T03:34:50;14.80;96.40
59973;DHT22;55298;-36.624;-64.282;2023-04-24T03:37:18;14.60;96.30
59973;DHT22;55298;-36.624;-64.282;2023-04-24T03:39:47;14.90;96.40
59973;DHT22;55298;-36.624;-64.282;2023-04-24T03:42:16;14.80;96.30
59973;DHT22;55298;-36.624;-64.282;2023-04-24T03:47:11;14.80;96.30
59973;DHT22;55298;-36.624;-64.282;2023-04-24T03:49:39;14.60;97.10
59973;DHT22;55298;-36.624;-64.282;2023-04-24T03:52:07;14.70;97.20
59973;DHT22;55298;-36.624;-64.282;2023-04-24T03:54:35;14.70;97.30
59973;DHT22;55298;-36.624;-64.282;2023-04-24T03:57:03;14.60;97.80
59973;DHT22;55298;-36.624;-64.282;2023-04-24T03:59:34;14.60;97.80
59973;DHT22;55298;-36.624;-64.282;2023-04-24T04:02:05;14.60;97.50
59973;DHT22;55298;-36.624;-64.282;2023-04-24T04:04:33;14.60;97.40
59973;DHT22;55298;-36.624;-64.282;2023-04-24T04:07:00;14.50;97.80
59973;DHT22;55298;-36.624;-64.282;2023-04-24T04:09:29;14.50;98.30
59973;DHT22;55298;-36.624;-64.282;2023-04-24T04:11:57;14.50;98.30
59973;DHT22;55298;-36.624;-64.282;2023-04-24T04:14:25;14.40;98.10
59973;DHT22;55298;-36.624;-64.282;2023-04-24T04:16:53;14.40;98.90
59973;DHT22;55298;-36.624;-64.282;2023-04-24T04:19:21;14.40;98.70
59973;DHT22;55298;-36.624;-64.282;2023-04-24T04:21:49;14.30;99.20
59973;DHT22;55298;-36.624;-64.282;2023-04-24T04:24:23;14.30;99.60
59973;DHT22;55298;-36.624;-64.282;2023-04-24T04:26:51;14.30;99.90
59973;DHT22;55298;-36.624;-64.282;2023-04-24T04:29:19;14.20;99.70
59973;DHT22;55298;-36.624;-64.282;2023-04-24T04:31:47;14.20;99.90
59973;DHT22;55298;-36.624;-64.282;2023-04-24T04:34:14;14.20;99.90
59973;DHT22;55298;-36.624;-64.282;2023-04-24T04:36:42;14.20;99.90
59973;DHT22;55298;-36.624;-64.282;2023-04-24T04:39:11;14.10;99.90
59973;DHT22;55298;-36.624;-64.282;2023-04-24T04:41:40;14.10;99.90
59973;DHT22;55298;-36.624;-64.282;2023-04-24T04:44:08;14.10;99.90
59973;DHT22;55298;-36.624;-64.282;2023-04-24T04:46:36;14.10;99.90
59973;DHT22;55298;-36.624;-64.282;2023-04-24T04:49:05;14.00;99.90
59973;DHT22;55298;-36.624;-64.282;2023-04-24T04:51:32;14.00;99.90
59973;DHT22;55298;-36.624;-64.282;2023-04-24T04:54:00;14.00;99.90
59973;DHT22;55298;-36.624;-64.282;2023-04-24T04:56:28;13.90;99.90
59973;DHT22;55298;-36.624;-64.282;2023-04-24T04:58:56;13.90;99.90
59973;DHT22;55298;-36.624;-64.282;2023-04-24T05:01:25;13.90;99.90
59973;DHT22;55298;-36.624;-64.282;2023-04-24T05:03:54;13.80;99.90
59973;DHT22;55298;-36.624;-64.282;2023-04-24T05:06:22;13.80;99.90
59973;DHT22;55298;-36.624;-64.282;2023-04-24T05:08:49;13.80;99.90
59973;DHT22;55298;-36.624;-64.282;2023-04-24T05:11:18;13.80;99.90
59973;DHT22;55298;-36.624;-64.282;2023-04-24T05:13:45;13.80;99.90
59973;DHT22;55298;-36.624;-64.282;2023-04-24T05:16:13;13.70;99.90
59973;DHT22;55298;-36.624;-64.282;2023-04-24T05:18:41;13.70;99.90
59973;DHT22;55298;-36.624;-64.282;2023-04-24T05:21:09;13.70;99.90
59973;DHT22;55298;-36.624;-64.282;2023-04-24T05:23:37;13.60;99.90
59973;DHT22;55298;-36.624;-64.282;2023-04-24T05:26:05;13.60;99.90
59973;DHT22;55298;-36.624;-64.282;2023-04-24T05:28:34;13.60;99.90
59973;DHT22;55298;-36.624;-64.282;2023-04-24T05:31:03;13.60;99.90
59973;DHT22;55298;-36.624;-64.282;2023-04-24T05:33:31;13.60;99.90
59973;DHT22;55298;-36.624;-64.282;2023-04-24T05:35:59;13.50;99.90
59973;DHT22;55298;-36.624;-64.282;2023-04-24T05:38:27;13.60;99.90
59973;DHT22;55298;-36.624;-64.282;2023-04-24T05:40:54;13.50;99.90
59973;DHT22;55298;-36.624;-64.282;2023-04-24T05:43:22;13.50;99.90
59973;DHT22;55298;-36.624;-64.282;2023-04-24T05:45:50;13.50;99.90
59973;DHT22;55298;-36.624;-64.282;2023-04-24T05:48:18;13.50;99.90
59973;DHT22;55298;-36.624;-64.282;2023-04-24T05:50:45;13.40;99.90
59973;DHT22;55298;-36.624;-64.282;2023-04-24T05:53:14;13.40;99.90
59973;DHT22;55298;-36.624;-64.282;2023-04-24T05:55:42;13.40;99.90
59973;DHT22;55298;-36.624;-64.282;2023-04-24T05:58:10;13.40;99.90
59973;DHT22;55298;-36.624;-64.282;2023-04-24T06:00:38;13.40;99.90
59973;DHT22;55298;-36.624;-64.282;2023-04-24T06:03:09;13.40;99.90
59973;DHT22;55298;-36.624;-64.282;2023-04-24T06:05:37;13.40;99.90
59973;DHT22;55298;-36.624;-64.282;2023-04-24T06:08:05;13.40;99.90
59973;DHT22;55298;-36.624;-64.282;2023-04-24T06:10:33;13.40;99.90
59973;DHT22;55298;-36.624;-64.282;2023-04-24T06:13:01;13.40;99.90
59973;DHT22;55298;-36.624;-64.282;2023-04-24T06:15:30;13.40;99.90
59973;DHT22;55298;-36.624;-64.282;2023-04-24T06:17:58;13.40;99.90
59973;DHT22;55298;-36.624;-64.282;2023-04-24T06:20:26;13.40;99.90
59973;DHT22;55298;-36.624;-64.282;2023-04-24T06:22:54;13.40;99.90
59973;DHT22;55298;-36.624;-64.282;2023-04-24T06:25:24;13.50;99.90
59973;DHT22;55298;-36.624;-64.282;2023-04-24T06:27:52;13.30;99.90
59973;DHT22;55298;-36.624;-64.282;2023-04-24T06:30:20;13.40;99.90
59973;DHT22;55298;-36.624;-64.282;2023-04-24T06:32:47;13.50;99.90
59973;DHT22;55298;-36.624;-64.282;2023-04-24T06:35:15;13.50;99.90
59973;DHT22;55298;-36.624;-64.282;2023-04-24T06:37:43;13.30;99.90
59973;DHT22;55298;-36.624;-64.282;2023-04-24T06:40:11;13.30;99.90
59973;DHT22;55298;-36.624;-64.282;2023-04-24T06:42:39;13.20;99.90
59973;DHT22;55298;-36.624;-64.282;2023-04-24T06:45:07;13.20;99.90
59973;DHT22;55298;-36.624;-64.282;2023-04-24T06:47:35;13.30;99.90
59973;DHT22;55298;-36.624;-64.282;2023-04-24T06:50:02;13.30;99.90
59973;DHT22;55298;-36.624;-64.282;2023-04-24T06:52:30;13.30;99.90
59973;DHT22;55298;-36.624;-64.282;2023-04-24T06:55:03;13.30;99.90
59973;DHT22;55298;-36.624;-64.282;2023-04-24T06:57:32;13.30;99.90
59973;DHT22;55298;-36.624;-64.282;2023-04-24T06:59:59;13.20;99.90
59973;DHT22;55298;-36.624;-64.282;2023-04-24T07:02:27;13.30;99.90
59973;DHT22;55298;-36.624;-64.282;2023-04-24T07:04:55;13.20;99.90
59973;DHT22;55298;-36.624;-64.282;2023-04-24T07:07:23;13.20;99.90
59973;DHT22;55298;-36.624;-64.282;2023-04-24T07:09:51;13.20;99.90
59973;DHT22;55298;-36.624;-64.282;2023-04-24T07:12:18;13.20;99.90
59973;DHT22;55298;-36.624;-64.282;2023-04-24T07:14:48;13.20;99.90
59973;DHT22;55298;-36.624;-64.282;2023-04-24T07:17:16;13.10;99.90
59973;DHT22;55298;-36.624;-64.282;2023-04-24T07:19:44;13.10;99.90
59973;DHT22;55298;-36.624;-64.282;2023-04-24T07:22:12;13.20;99.90
59973;DHT22;55298;-36.624;-64.282;2023-04-24T07:24:44;13.10;99.90
59973;DHT22;55298;-36.624;-64.282;2023-04-24T07:27:12;13.10;99.90
59973;DHT22;55298;-36.624;-64.282;2023-04-24T07:29:42;13.00;99.90
59973;DHT22;55298;-36.624;-64.282;2023-04-24T07:32:09;13.00;99.90
59973;DHT22;55298;-36.624;-64.282;2023-04-24T07:34:37;13.00;99.90
59973;DHT22;55298;-36.624;-64.282;2023-04-24T07:37:05;13.00;99.90
59973;DHT22;55298;-36.624;-64.282;2023-04-24T07:39:33;12.90;99.90
59973;DHT22;55298;-36.624;-64.282;2023-04-24T07:42:01;12.90;99.90
59973;DHT22;55298;-36.624;-64.282;2023-04-24T07:44:29;12.90;99.90
59973;DHT22;55298;-36.624;-64.282;2023-04-24T07:46:57;12.90;99.90
59973;DHT22;55298;-36.624;-64.282;2023-04-24T07:49:25;12.90;99.90
59973;DHT22;55298;-36.624;-64.282;2023-04-24T07:51:54;12.90;99.90
59973;DHT22;55298;-36.624;-64.282;2023-04-24T07:54:22;12.80;99.90
59973;DHT22;55298;-36.624;-64.282;2023-04-24T07:56:50;12.70;99.90
59973;DHT22;55298;-36.624;-64.282;2023-04-24T07:59:17;12.70;99.90
59973;DHT22;55298;-36.624;-64.282;2023-04-24T08:01:45;12.70;99.90
59973;DHT22;55298;-36.624;-64.282;2023-04-24T08:04:13;12.70;99.90
59973;DHT22;55298;-36.624;-64.282;2023-04-24T08:06:41;12.80;99.90
59973;DHT22;55298;-36.624;-64.282;2023-04-24T08:09:08;12.70;99.90
59973;DHT22;55298;-36.624;-64.282;2023-04-24T08:11:36;12.70;99.90
59973;DHT22;55298;-36.624;-64.282;2023-04-24T08:14:04;12.60;99.90
59973;DHT22;55298;-36.624;-64.282;2023-04-24T08:16:33;12.70;99.90
59973;DHT22;55298;-36.624;-64.282;2023-04-24T08:19:01;12.70;99.90
59973;DHT22;55298;-36.624;-64.282;2023-04-24T08:21:28;12.60;99.90
59973;DHT22;55298;-36.624;-64.282;2023-04-24T08:23:56;12.60;99.90
59973;DHT22;55298;-36.624;-64.282;2023-04-24T08:26:24;12.60;99.90
59973;DHT22;55298;-36.624;-64.282;2023-04-24T08:28:52;12.60;99.90
59973;DHT22;55298;-36.624;-64.282;2023-04-24T08:31:19;12.60;99.90
59973;DHT22;55298;-36.624;-64.282;2023-04-24T08:33:47;12.60;99.90
59973;DHT22;55298;-36.624;-64.282;2023-04-24T08:36:15;12.60;99.90
59973;DHT22;55298;-36.624;-64.282;2023-04-24T08:38:43;12.60;99.90
59973;DHT22;55298;-36.624;-64.282;2023-04-24T08:41:14;12.60;99.90
59973;DHT22;55298;-36.624;-64.282;2023-04-24T08:43:42;12.60;99.90
59973;DHT22;55298;-36.624;-64.282;2023-04-24T08:46:11;12.60;99.90
59973;DHT22;55298;-36.624;-64.282;2023-04-24T08:48:40;12.50;99.90
59973;DHT22;55298;-36.624;-64.282;2023-04-24T08:51:08;12.60;99.90
59973;DHT22;55298;-36.624;-64.282;2023-04-24T08:53:37;12.50;99.90
59973;DHT22;55298;-36.624;-64.282;2023-04-24T08:56:05;12.60;99.90
59973;DHT22;55298;-36.624;-64.282;2023-04-24T08:58:36;12.50;99.90
59973;DHT22;55298;-36.624;-64.282;2023-04-24T09:01:05;12.50;99.90
59973;DHT22;55298;-36.624;-64.282;2023-04-24T09:03:33;12.50;99.90
59973;DHT22;55298;-36.624;-64.282;2023-04-24T09:06:03;12.50;99.90
59973;DHT22;55298;-36.624;-64.282;2023-04-24T09:08:31;12.40;99.90
59973;DHT22;55298;-36.624;-64.282;2023-04-24T09:11:00;12.50;99.90
59973;DHT22;55298;-36.624;-64.282;2023-04-24T09:13:30;12.40;99.90
59973;DHT22;55298;-36.624;-64.282;2023-04-24T09:15:58;12.40;99.90
59973;DHT22;55298;-36.624;-64.282;2023-04-24T09:18:27;12.40;99.90
59973;DHT22;55298;-36.624;-64.282;2023-04-24T09:21:03;12.40;99.90
59973;DHT22;55298;-36.624;-64.282;2023-04-24T09:23:32;12.40;99.90
59973;DHT22;55298;-36.624;-64.282;2023-04-24T09:26:01;12.40;99.90
59973;DHT22;55298;-36.624;-64.282;2023-04-24T09:28:37;12.40;99.90
59973;DHT22;55298;-36.624;-64.282;2023-04-24T09:31:14;12.40;99.90
59973;DHT22;55298;-36.624;-64.282;2023-04-24T09:33:54;12.40;99.90
59973;DHT22;55298;-36.624;-64.282;2023-04-24T09:36:32;12.40;99.90
59973;DHT22;55298;-36.624;-64.282;2023-04-24T09:39:01;12.40;99.90
59973;DHT22;55298;-36.624;-64.282;2023-04-24T09:41:32;12.40;99.90
59973;DHT22;55298;-36.624;-64.282;2023-04-24T09:44:14;12.40;99.90
59973;DHT22;55298;-36.624;-64.282;2023-04-24T09:46:44;12.40;99.90
59973;DHT22;55298;-36.624;-64.282;2023-04-24T09:49:15;12.30;99.90
59973;DHT22;55298;-36.624;-64.282;2023-04-24T09:51:43;12.30;99.90
59973;DHT22;55298;-36.624;-64.282;2023-04-24T09:54:18;12.30;99.90
59973;DHT22;55298;-36.624;-64.282;2023-04-24T09:56:49;12.30;99.90
59973;DHT22;55298;-36.624;-64.282;2023-04-24T09:59:20;12.30;99.90
59973;DHT22;55298;-36.624;-64.282;2023-04-24T10:01:48;12.30;99.90
59973;DHT22;55298;-36.624;-64.282;2023-04-24T10:04:21;12.30;99.90
59973;DHT22;55298;-36.624;-64.282;2023-04-24T10:06:52;12.30;99.90
59973;DHT22;55298;-36.624;-64.282;2023-04-24T10:09:25;12.20;99.90
59973;DHT22;55298;-36.624;-64.282;2023-04-24T10:11:54;12.20;99.90
59973;DHT22;55298;-36.624;-64.282;2023-04-24T10:14:24;12.20;99.90
59973;DHT22;55298;-36.624;-64.282;2023-04-24T10:16:54;12.20;99.90
59973;DHT22;55298;-36.624;-64.282;2023-04-24T10:19:26;12.20;99.90
59973;DHT22;55298;-36.624;-64.282;2023-04-24T10:21:54;12.20;99.90
59973;DHT22;55298;-36.624;-64.282;2023-04-24T10:24:33;12.20;99.90
59973;DHT22;55298;-36.624;-64.282;2023-04-24T10:27:05;12.10;99.90
59973;DHT22;55298;-36.624;-64.282;2023-04-24T10:29:36;12.00;99.90
59973;DHT22;55298;-36.624;-64.282;2023-04-24T10:32:08;12.10;99.90
59973;DHT22;55298;-36.624;-64.282;2023-04-24T10:34:36;12.10;99.90
59973;DHT22;55298;-36.624;-64.282;2023-04-24T10:37:04;12.10;99.90
59973;DHT22;55298;-36.624;-64.282;2023-04-24T10:39:32;12.00;99.90
59973;DHT22;55298;-36.624;-64.282;2023-04-24T10:42:02;12.00;99.90
59973;DHT22;55298;-36.624;-64.282;2023-04-24T10:44:37;12.00;99.90
59973;DHT22;55298;-36.624;-64.282;2023-04-24T10:47:05;11.90;99.90
59973;DHT22;55298;-36.624;-64.282;2023-04-24T10:49:41;12.10;99.90
59973;DHT22;55298;-36.624;-64.282;2023-04-24T10:52:11;12.10;99.90
59973;DHT22;55298;-36.624;-64.282;2023-04-24T10:54:48;12.10;99.90
59973;DHT22;55298;-36.624;-64.282;2023-04-24T10:57:27;12.10;99.90
59973;DHT22;55298;-36.624;-64.282;2023-04-24T11:00:12;12.10;99.90
59973;DHT22;55298;-36.624;-64.282;2023-04-24T11:02:42;12.20;99.90
59973;DHT22;55298;-36.624;-64.282;2023-04-24T11:05:18;12.20;99.90
59973;DHT22;55298;-36.624;-64.282;2023-04-24T11:10:34;12.30;99.90
59973;DHT22;55298;-36.624;-64.282;2023-04-24T11:13:14;12.30;99.90
59973;DHT22;55298;-36.624;-64.282;2023-04-24T11:15:43;12.30;99.90
59973;DHT22;55298;-36.624;-64.282;2023-04-24T11:18:25;12.30;99.90
59973;DHT22;55298;-36.624;-64.282;2023-04-24T11:21:12;12.40;99.90
59973;DHT22;55298;-36.624;-64.282;2023-04-24T11:23:40;12.40;99.90
59973;DHT22;55298;-36.624;-64.282;2023-04-24T11:29:14;12.30;99.90
59973;DHT22;55298;-36.624;-64.282;2023-04-24T11:31:46;12.80;99.90
59973;DHT22;55298;-36.624;-64.282;2023-04-24T11:34:19;13.20;99.90
59973;DHT22;55298;-36.624;-64.282;2023-04-24T11:36:54;13.60;99.90
59973;DHT22;55298;-36.624;-64.282;2023-04-24T11:39:22;14.10;99.90
59973;DHT22;55298;-36.624;-64.282;2023-04-24T11:42:01;14.60;99.90
59973;DHT22;55298;-36.624;-64.282;2023-04-24T11:44:35;15.10;99.90
59973;DHT22;55298;-36.624;-64.282;2023-04-24T11:47:06;15.60;99.90
59973;DHT22;55298;-36.624;-64.282;2023-04-24T11:49:49;16.30;99.90
59973;DHT22;55298;-36.624;-64.282;2023-04-24T11:52:21;16.80;98.40
59973;DHT22;55298;-36.624;-64.282;2023-04-24T11:55:28;17.20;95.70
59973;DHT22;55298;-36.624;-64.282;2023-04-24T11:57:58;17.80;94.80
59973;DHT22;55298;-36.624;-64.282;2023-04-24T12:00:57;18.30;94.50
59973;DHT22;55298;-36.624;-64.282;2023-04-24T12:03:49;18.90;91.20
59973;DHT22;55298;-36.624;-64.282;2023-04-24T12:06:20;19.20;87.40
59973;DHT22;55298;-36.624;-64.282;2023-04-24T12:08:48;19.50;85.80
59973;DHT22;55298;-36.624;-64.282;2023-04-24T12:11:22;19.80;83.80
59973;DHT22;55298;-36.624;-64.282;2023-04-24T12:13:51;20.10;81.20
59973;DHT22;55298;-36.624;-64.282;2023-04-24T12:16:20;20.10;78.20
59973;DHT22;55298;-36.624;-64.282;2023-04-24T12:18:56;20.40;77.50
59973;DHT22;55298;-36.624;-64.282;2023-04-24T12:21:27;20.40;75.50
59973;DHT22;55298;-36.624;-64.282;2023-04-24T12:23:57;20.50;76.70
59973;DHT22;55298;-36.624;-64.282;2023-04-24T12:26:26;20.70;74.10
59973;DHT22;55298;-36.624;-64.282;2023-04-24T12:28:55;20.90;72.10
59973;DHT22;55298;-36.624;-64.282;2023-04-24T12:31:28;21.00;73.00
59973;DHT22;55298;-36.624;-64.282;2023-04-24T12:33:58;21.30;73.20
59973;DHT22;55298;-36.624;-64.282;2023-04-24T12:36:26;21.60;71.00
59973;DHT22;55298;-36.624;-64.282;2023-04-24T12:38:57;21.90;68.30
59973;DHT22;55298;-36.624;-64.282;2023-04-24T12:41:26;22.30;70.90
59973;DHT22;55298;-36.624;-64.282;2023-04-24T12:43:54;22.70;65.00
59973;DHT22;55298;-36.624;-64.282;2023-04-24T12:46:23;22.60;63.50
59973;DHT22;55298;-36.624;-64.282;2023-04-24T12:48:54;22.80;66.20
59973;DHT22;55298;-36.624;-64.282;2023-04-24T12:51:27;22.90;62.60
59973;DHT22;55298;-36.624;-64.282;2023-04-24T12:53:55;23.40;66.60
59973;DHT22;55298;-36.624;-64.282;2023-04-24T12:56:24;23.70;61.60
59973;DHT22;55298;-36.624;-64.282;2023-04-24T12:58:54;23.60;60.30
59973;DHT22;55298;-36.624;-64.282;2023-04-24T13:01:27;23.50;60.40
59973;DHT22;55298;-36.624;-64.282;2023-04-24T13:03:56;23.50;63.30
59973;DHT22;55298;-36.624;-64.282;2023-04-24T13:06:27;23.80;63.70
59973;DHT22;55298;-36.624;-64.282;2023-04-24T13:09:02;24.00;60.80
59973;DHT22;55298;-36.624;-64.282;2023-04-24T13:11:31;24.30;60.70
59973;DHT22;55298;-36.624;-64.282;2023-04-24T13:14:02;24.40;57.80
59973;DHT22;55298;-36.624;-64.282;2023-04-24T13:16:36;24.50;59.10
59973;DHT22;55298;-36.624;-64.282;2023-04-24T13:19:04;24.50;57.40
59973;DHT22;55298;-36.624;-64.282;2023-04-24T13:21:33;24.40;58.40
59973;DHT22;55298;-36.624;-64.282;2023-04-24T13:24:23;24.50;57.90
59973;DHT22;55298;-36.624;-64.282;2023-04-24T13:26:54;24.30;58.10
59973;DHT22;55298;-36.624;-64.282;2023-04-24T13:29:24;24.20;58.50
59973;DHT22;55298;-36.624;-64.282;2023-04-24T13:31:53;24.10;59.10
59973;DHT22;55298;-36.624;-64.282;2023-04-24T13:34:25;24.20;59.60
59973;DHT22;55298;-36.624;-64.282;2023-04-24T13:36:57;24.10;58.80
59973;DHT22;55298;-36.624;-64.282;2023-04-24T13:39:26;24.00;59.40
59973;DHT22;55298;-36.624;-64.282;2023-04-24T13:41:55;24.00;59.60
59973;DHT22;55298;-36.624;-64.282;2023-04-24T13:44:29;24.40;61.30
59973;DHT22;55298;-36.624;-64.282;2023-04-24T13:46:59;24.80;59.20
59973;DHT22;55298;-36.624;-64.282;2023-04-24T13:49:27;24.90;58.70
59973;DHT22;55298;-36.624;-64.282;2023-04-24T13:51:58;24.80;58.70
59973;DHT22;55298;-36.624;-64.282;2023-04-24T13:54:35;24.70;59.30
59973;DHT22;55298;-36.624;-64.282;2023-04-24T13:57:04;24.90;60.20
59973;DHT22;55298;-36.624;-64.282;2023-04-24T13:59:32;25.40;59.00
59973;DHT22;55298;-36.624;-64.282;2023-04-24T14:02:00;25.80;57.00
59973;DHT22;55298;-36.624;-64.282;2023-04-24T14:04:29;26.10;57.80
59973;DHT22;55298;-36.624;-64.282;2023-04-24T14:06:57;26.40;56.20
59973;DHT22;55298;-36.624;-64.282;2023-04-24T14:09:29;26.00;56.20
59973;DHT22;55298;-36.624;-64.282;2023-04-24T14:11:57;25.60;57.60
59973;DHT22;55298;-36.624;-64.282;2023-04-24T14:14:26;25.40;56.90
59973;DHT22;55298;-36.624;-64.282;2023-04-24T14:16:54;25.70;57.90
59973;DHT22;55298;-36.624;-64.282;2023-04-24T14:19:22;26.00;57.80
59973;DHT22;55298;-36.624;-64.282;2023-04-24T14:21:52;26.50;56.30
59973;DHT22;55298;-36.624;-64.282;2023-04-24T14:24:24;26.50;55.40
59973;DHT22;55298;-36.624;-64.282;2023-04-24T14:26:52;26.40;55.60
59973;DHT22;55298;-36.624;-64.282;2023-04-24T14:29:23;26.50;56.50
59973;DHT22;55298;-36.624;-64.282;2023-04-24T14:31:57;26.40;55.10
59973;DHT22;55298;-36.624;-64.282;2023-04-24T14:34:26;26.30;55.10
59973;DHT22;55298;-36.624;-64.282;2023-04-24T14:36:54;26.10;56.10
59973;DHT22;55298;-36.624;-64.282;2023-04-24T14:39:24;25.80;56.30
59973;DHT22;55298;-36.624;-64.282;2023-04-24T14:41:53;25.60;57.50
59973;DHT22;55298;-36.624;-64.282;2023-04-24T14:44:21;25.60;57.80
59973;DHT22;55298;-36.624;-64.282;2023-04-24T14:46:50;25.40;57.50
59973;DHT22;55298;-36.624;-64.282;2023-04-24T14:49:20;25.40;57.70
59973;DHT22;55298;-36.624;-64.282;2023-04-24T14:51:47;25.50;57.60
59973;DHT22;55298;-36.624;-64.282;2023-04-24T14:54:16;25.30;57.50
59973;DHT22;55298;-36.624;-64.282;2023-04-24T14:56:44;25.50;58.10
59973;DHT22;55298;-36.624;-64.282;2023-04-24T14:59:12;25.50;57.70
59973;DHT22;55298;-36.624;-64.282;2023-04-24T15:01:40;25.30;58.50
59973;DHT22;55298;-36.624;-64.282;2023-04-24T15:04:08;24.90;59.30
59973;DHT22;55298;-36.624;-64.282;2023-04-24T15:06:36;24.50;59.70
59973;DHT22;55298;-36.624;-64.282;2023-04-24T15:09:06;24.10;61.70
59973;DHT22;55298;-36.624;-64.282;2023-04-24T15:11:34;23.60;62.70
59973;DHT22;55298;-36.624;-64.282;2023-04-24T15:14:02;23.10;65.20